Time;durP1;ratioP1;P1;durP2;ratioP2;P2;SDS_P1;SDS_P2;PMS_P1;PMS_P2;Temp;Humidity;BMP_temperature;BMP_pressure;BME280_temperature;BME280_humidity;BME280_pressure;Samples;Min_cycle;Max_cycle;Signal;HPM_P1;HPM_P2
2021/12/03 00:01:30;;;;;;;60.28;48.25;;;15.70;59.50;;;;;;4919593;28;91819;-74
2021/12/03 00:03:55;;;;;;;;;;;15.70;60.00;;;;;;4921538;28;90138;-74
2021/12/03 00:06:21;;;;;;;60.85;48.25;;;15.70;59.60;;;;;;4915279;28;89312;-73
2021/12/03 00:08:47;;;;;;;60.72;47.95;;;15.70;59.60;;;;;;4911827;28;90956;-74
2021/12/03 00:11:13;;;;;;;60.50;48.08;;;15.70;59.80;;;;;;4914341;28;91812;-74
2021/12/03 00:13:40;;;;;;;59.90;48.15;;;15.60;59.90;;;;;;4914025;28;91636;-73
2021/12/03 00:16:07;;;;;;;58.50;48.30;;;15.60;59.50;;;;;;4916814;28;90959;-73
2021/12/03 00:18:33;;;;;;;60.38;48.05;;;15.50;59.70;;;;;;4909753;28;90552;-73
2021/12/03 00:21:02;;;;;;;56.90;47.85;;;15.60;59.90;;;;;;4919116;28;90104;-73
2021/12/03 00:23:28;;;;;;;58.97;47.58;;;15.60;60.20;;;;;;4925635;28;90121;-73
2021/12/03 00:25:55;;;;;;;59.75;48.15;;;15.60;60.00;;;;;;4919517;28;89504;-73
2021/12/03 00:28:21;;;;;;;57.28;47.67;;;15.50;60.00;;;;;;4925072;28;91014;-74
2021/12/03 00:30:47;;;;;;;60.05;47.97;;;15.50;59.90;;;;;;4910971;28;90124;-74
2021/12/03 00:33:13;;;;;;;59.38;48.08;;;15.60;60.10;;;;;;4912661;28;90533;-73
2021/12/03 00:35:38;;;;;;;59.33;48.22;;;15.50;59.90;;;;;;4918888;28;89922;-73
2021/12/03 00:38:05;;;;;;;58.30;47.70;;;15.50;60.00;;;;;;4913812;28;92471;-73
2021/12/03 00:40:39;;;;;;;59.63;48.08;;;15.50;59.80;;;;;;4917213;28;90305;-74
2021/12/03 00:43:07;;;;;;;60.60;47.90;;;15.50;60.20;;;;;;4928530;28;89906;-73
2021/12/03 00:45:32;;;;;;;60.17;48.08;;;15.50;61.00;;;;;;4899667;28;90442;-73
2021/12/03 00:47:59;;;;;;;59.55;48.13;;;15.50;60.30;;;;;;4907632;28;94254;-73
2021/12/03 00:50:27;;;;;;;58.28;47.65;;;15.40;60.60;;;;;;4910399;28;89470;-73
2021/12/03 00:52:54;;;;;;;60.10;47.83;;;15.40;59.80;;;;;;4917208;28;90916;-73
2021/12/03 00:55:22;;;;;;;58.75;48.20;;;15.30;59.90;;;;;;4922613;28;91409;-73
2021/12/03 00:57:48;;;;;;;60.60;48.00;;;15.40;60.50;;;;;;4917031;28;91828;-72
2021/12/03 01:00:23;;;;;;;57.78;47.63;;;15.30;60.30;;;;;;4910240;28;89828;-72
2021/12/03 01:02:49;;;;;;;58.20;47.78;;;15.30;60.00;;;;;;4921553;28;90443;-72
2021/12/03 01:05:15;;;;;;;59.13;47.67;;;15.20;60.40;;;;;;4920745;28;91345;-73
2021/12/03 01:07:41;;;;;;;59.40;47.75;;;15.20;59.80;;;;;;4918451;28;89902;-72
2021/12/03 01:10:07;;;;;;;59.08;48.20;;;15.20;59.90;;;;;;4912354;28;92245;-73
2021/12/03 01:12:34;;;;;;;57.85;47.53;;;15.20;59.90;;;;;;4911258;28;90997;-73
2021/12/03 01:15:00;;;;;;;61.75;47.50;;;15.10;59.90;;;;;;4915651;28;90894;-73
2021/12/03 01:17:26;;;;;;;59.53;47.83;;;15.10;59.80;;;;;;4911556;28;91504;-73
2021/12/03 01:19:52;;;;;;;59.00;47.72;;;15.10;60.00;;;;;;4795908;28;91505;-73
2021/12/03 01:22:17;;;;;;;52.23;43.13;;;15.10;59.80;;;;;;277268;28;10112733;-73
2021/12/03 01:24:43;;;;;;;59.10;47.50;;;15.10;60.20;;;;;;4941354;28;89963;-73
2021/12/03 01:27:09;;;;;;;59.22;48.03;;;15.10;59.90;;;;;;4937785;28;90658;-73
2021/12/03 01:29:35;;;;;;;59.33;47.83;;;15.10;60.00;;;;;;4943654;28;90698;-73
2021/12/03 01:32:00;;;;;;;58.92;47.75;;;15.00;59.80;;;;;;4937403;28;91093;-72
2021/12/03 01:34:26;;;;;;;58.47;47.53;;;15.00;59.60;;;;;;4938974;28;90246;-72
2021/12/03 01:36:52;;;;;;;58.13;47.72;;;15.00;59.70;;;;;;4937517;28;90813;-73
2021/12/03 01:39:18;;;;;;;61.53;48.00;;;15.00;60.10;;;;;;4933325;28;92662;-73
2021/12/03 01:41:44;;;;;;;60.25;47.85;;;15.00;59.60;;;;;;4935072;28;91432;-72
2021/12/03 01:44:10;;;;;;;57.97;47.33;;;15.00;59.70;;;;;;4943916;28;89096;-72
2021/12/03 01:46:35;;;;;;;58.60;47.33;;;14.90;59.60;;;;;;4932417;28;92222;-73
2021/12/03 01:49:02;;;;;;;60.88;47.67;;;14.90;59.70;;;;;;4933615;28;90808;-72
2021/12/03 01:51:28;;;;;;;59.10;47.47;;;14.90;59.60;;;;;;4922950;28;94255;-73
2021/12/03 01:53:55;;;;;;;60.53;47.97;;;14.90;59.80;;;;;;4936489;28;89951;-73
2021/12/03 01:56:21;;;;;;;61.35;47.70;;;14.90;59.70;;;;;;4933799;28;94644;-73
2021/12/03 01:58:49;;;;;;;57.70;47.55;;;14.90;60.40;;;;;;4939961;28;90507;-72
2021/12/03 02:01:20;;;;;;;64.13;48.28;;;14.90;59.80;;;;;;4929180;28;90193;-74
2021/12/03 02:03:56;;;;;;;60.65;47.47;;;14.90;59.90;;;;;;4935119;28;90279;-73
2021/12/03 02:06:22;;;;;;;60.85;48.03;;;14.90;59.90;;;;;;4924799;28;91062;-73
2021/12/03 02:08:49;;;;;;;58.92;47.90;;;14.80;59.80;;;;;;4936342;28;90600;-73
2021/12/03 02:11:16;;;;;;;59.08;47.67;;;14.80;59.80;;;;;;4935198;28;93007;-72
2021/12/03 02:13:43;;;;;;;61.55;47.67;;;14.80;59.80;;;;;;4932626;28;89768;-73
2021/12/03 02:16:10;;;;;;;58.30;47.75;;;14.90;59.80;;;;;;4928996;28;92503;-73
2021/12/03 02:18:36;;;;;;;59.15;47.63;;;14.80;59.70;;;;;;4933320;28;92190;-73
2021/12/03 02:21:05;;;;;;;60.47;47.83;;;14.80;59.90;;;;;;4933585;28;90912;-72
2021/12/03 02:23:32;;;;;;;58.88;47.50;;;14.90;59.90;;;;;;4939818;28;89994;-73
2021/12/03 02:25:57;;;;;;;58.58;47.80;;;14.90;59.70;;;;;;4943964;28;91571;-72
2021/12/03 02:28:30;;;;;;;61.88;47.50;;;14.80;59.60;;;;;;4933851;28;93190;-73
2021/12/03 02:30:56;;;;;;;58.40;47.75;;;14.80;59.80;;;;;;4941808;28;89906;-73
2021/12/03 02:33:22;;;;;;;57.95;47.67;;;14.80;59.80;;;;;;4942361;28;91148;-73
2021/12/03 02:35:49;;;;;;;60.83;47.78;;;14.90;59.80;;;;;;4939113;28;91339;-72
2021/12/03 02:38:18;;;;;;;59.55;47.78;;;14.90;59.80;;;;;;4948270;28;95490;-72
2021/12/03 02:40:46;;;;;;;59.00;47.45;;;14.80;59.60;;;;;;4933255;28;90759;-73
2021/12/03 02:43:14;;;;;;;56.88;47.08;;;14.80;59.60;;;;;;4933425;28;89910;-72
2021/12/03 02:45:40;;;;;;;58.15;47.17;;;14.80;59.90;;;;;;4927682;28;93877;-72
2021/12/03 02:48:05;;;;;;;58.60;47.55;;;14.80;59.60;;;;;;4931267;28;91139;-73
2021/12/03 02:50:31;;;;;;;57.88;47.63;;;14.80;59.80;;;;;;4933197;28;92048;-71
2021/12/03 02:52:57;;;;;;;62.47;47.97;;;14.80;59.70;;;;;;4927332;28;90027;-72
2021/12/03 02:55:23;;;;;;;59.13;47.47;;;14.80;59.50;;;;;;4921805;28;90382;-72
2021/12/03 02:57:49;;;;;;;57.58;47.47;;;14.80;59.50;;;;;;4934179;28;88723;-74
2021/12/03 03:00:17;;;;;;;60.45;48.15;;;14.80;59.80;;;;;;4936220;28;89666;-74
2021/12/03 03:02:44;;;;;;;58.97;47.47;;;14.80;59.70;;;;;;4925866;28;91234;-74
2021/12/03 03:05:12;;;;;;;58.92;47.83;;;14.80;59.50;;;;;;4929090;28;90758;-72
2021/12/03 03:07:38;;;;;;;59.03;47.58;;;14.80;59.60;;;;;;4930072;28;94342;-73
2021/12/03 03:10:08;;;;;;;58.97;47.50;;;14.80;59.60;;;;;;4928408;28;91206;-72
2021/12/03 03:12:33;;;;;;;58.17;47.65;;;14.70;59.40;;;;;;4936430;28;92115;-72
2021/12/03 03:15:00;;;;;;;59.75;47.83;;;14.70;59.60;;;;;;4924942;28;91746;-72
2021/12/03 03:17:29;;;;;;;57.88;47.33;;;14.70;59.70;;;;;;4936311;28;92994;-73
2021/12/03 03:19:57;;;;;;;57.95;47.53;;;14.80;59.80;;;;;;4923084;28;91868;-73
2021/12/03 03:22:23;;;;;;;59.08;47.08;;;14.80;59.80;;;;;;4928001;28;89544;-72
2021/12/03 03:24:59;;;;;;;60.17;47.78;;;14.80;59.40;;;;;;4936309;28;90820;-72
2021/12/03 03:27:25;;;;;;;60.47;47.30;;;14.80;59.40;;;;;;4936067;28;92437;-72
2021/12/03 03:29:52;;;;;;;57.28;47.65;;;14.80;59.40;;;;;;4930941;28;92448;-73
2021/12/03 03:32:18;;;;;;;61.13;48.00;;;14.90;59.50;;;;;;4929714;28;89608;-73
2021/12/03 03:34:44;;;;;;;58.42;47.40;;;14.90;59.30;;;;;;4951286;28;89512;-73
2021/12/03 03:37:10;;;;;;;58.38;47.60;;;15.00;59.10;;;;;;4940184;28;90105;-72
2021/12/03 03:39:36;;;;;;;57.55;47.38;;;15.00;59.10;;;;;;4946727;28;92126;-73
2021/12/03 03:42:03;;;;;;;58.33;47.47;;;15.00;59.00;;;;;;4929798;28;90550;-73
2021/12/03 03:44:29;;;;;;;57.20;47.22;;;15.20;58.90;;;;;;4937845;28;90407;-72
2021/12/03 03:46:55;;;;;;;59.13;47.47;;;15.20;58.60;;;;;;4918276;28;91239;-73
2021/12/03 03:49:23;;;;;;;58.67;47.45;;;15.20;58.50;;;;;;4942508;28;91454;-73
2021/12/03 03:51:50;;;;;;;59.00;47.35;;;15.30;58.20;;;;;;4929326;28;90127;-73
2021/12/03 03:54:16;;;;;;;58.13;47.47;;;15.30;58.20;;;;;;4933153;28;95021;-72
2021/12/03 03:56:42;;;;;;;56.45;47.35;;;15.40;58.10;;;;;;4917235;28;94026;-72
2021/12/03 03:59:08;;;;;;;58.22;47.60;;;15.40;58.00;;;;;;4943148;28;90831;-72
2021/12/03 04:01:34;;;;;;;58.45;47.40;;;15.40;57.80;;;;;;4941076;28;90690;-72
2021/12/03 04:03:59;;;;;;;59.47;47.60;;;15.50;57.80;;;;;;4937403;28;89351;-73
2021/12/03 04:06:25;;;;;;;58.55;47.65;;;15.50;57.70;;;;;;4943241;28;91209;-72
2021/12/03 04:08:51;;;;;;;58.13;47.47;;;15.40;57.50;;;;;;4926966;28;93624;-73
2021/12/03 04:11:21;;;;;;;57.25;47.42;;;15.50;57.60;;;;;;4920704;28;90567;-72
2021/12/03 04:13:47;;;;;;;58.77;47.80;;;15.50;57.60;;;;;;4921520;28;91943;-73
2021/12/03 04:16:13;;;;;;;57.30;47.40;;;15.50;57.50;;;;;;4928051;28;91620;-73
2021/12/03 04:18:39;;;;;;;59.63;47.70;;;15.50;57.70;;;;;;4925482;28;91164;-73
2021/12/03 04:21:04;;;;;;;60.13;47.75;;;15.50;57.50;;;;;;4927646;28;90198;-72
2021/12/03 04:23:30;;;;;;;57.67;47.53;;;15.60;57.40;;;;;;4927814;28;91601;-73
2021/12/03 04:25:56;;;;;;;56.90;47.65;;;15.50;57.30;;;;;;4916004;28;91200;-73
2021/12/03 04:28:22;;;;;;;56.92;47.33;;;15.60;57.40;;;;;;4929367;28;91669;-73
2021/12/03 04:30:50;;;;;;;60.83;48.05;;;15.60;57.20;;;;;;4910207;28;92893;-69
2021/12/03 04:33:16;;;;;;;59.30;47.55;;;15.50;57.20;;;;;;4923444;28;89589;-70
2021/12/03 04:35:41;;;;;;;59.58;47.85;;;15.50;57.50;;;;;;4921443;28;89353;-71
2021/12/03 04:38:07;;;;;;;59.50;47.65;;;15.60;57.20;;;;;;4918411;28;95816;-70
2021/12/03 04:40:36;;;;;;;59.63;47.75;;;15.50;57.20;;;;;;4920300;28;90167;-70
2021/12/03 04:43:02;;;;;;;57.88;47.30;;;15.60;57.40;;;;;;4923584;28;90701;-70
2021/12/03 04:45:30;;;;;;;58.38;47.83;;;15.60;56.90;;;;;;4917664;28;92984;-69
2021/12/03 04:47:57;;;;;;;57.65;47.38;;;15.50;57.20;;;;;;4929365;28;89488;-70
2021/12/03 04:50:26;;;;;;;58.95;47.50;;;15.50;57.20;;;;;;4926802;28;91180;-70
2021/12/03 04:52:52;;;;;;;57.45;47.30;;;15.50;57.10;;;;;;4920686;28;90678;-70
2021/12/03 04:55:18;;;;;;;59.17;47.55;;;15.50;57.00;;;;;;4930595;28;91057;-70
2021/12/03 04:57:44;;;;;;;59.30;47.75;;;15.50;57.20;;;;;;4933676;28;92493;-70
2021/12/03 05:00:19;;;;;;;60.25;47.55;;;15.50;57.20;;;;;;4924964;28;90761;-70
2021/12/03 05:02:45;;;;;;;58.53;47.47;;;15.50;57.30;;;;;;4933291;28;91323;-71
2021/12/03 05:05:12;;;;;;;58.95;47.35;;;15.50;57.30;;;;;;4930290;28;90697;-71
2021/12/03 05:10:04;;;;;;;60.08;47.83;;;15.40;57.20;;;;;;4936725;28;89760;-70
2021/12/03 05:12:30;;;;;;;61.03;47.60;;;15.40;57.40;;;;;;4922065;28;90929;-70
2021/12/03 05:14:56;;;;;;;60.17;47.75;;;15.40;57.10;;;;;;4935601;28;92492;-70
2021/12/03 05:17:21;;;;;;;58.83;47.35;;;15.50;57.50;;;;;;4910614;28;90039;-72
2021/12/03 05:19:48;;;;;;;57.33;47.42;;;15.40;57.10;;;;;;4920612;28;91704;-71
2021/12/03 05:22:14;;;;;;;59.45;47.67;;;15.40;57.10;;;;;;4918365;28;90009;-71
2021/12/03 05:24:42;;;;;;;60.72;47.42;;;15.40;57.40;;;;;;4935356;28;89922;-71
2021/12/03 05:27:08;;;;;;;60.15;47.83;;;15.30;57.20;;;;;;4930788;28;90431;-72
2021/12/03 05:29:34;;;;;;;58.60;47.28;;;15.30;57.40;;;;;;4930838;28;90943;-71
2021/12/03 05:32:00;;;;;;;57.30;47.08;;;15.40;57.40;;;;;;4929256;28;91139;-71
2021/12/03 05:34:27;;;;;;;58.83;47.47;;;15.50;57.80;;;;;;4925758;28;91044;-70
2021/12/03 05:36:53;;;;;;;56.50;47.35;;;15.60;57.70;;;;;;4921070;28;92298;-71
2021/12/03 05:39:18;;;;;;;57.15;47.60;;;15.90;57.60;;;;;;4937129;28;89702;-71
2021/12/03 05:41:44;;;;;;;58.65;47.58;;;15.90;57.40;;;;;;4922211;28;89952;-71
2021/12/03 05:44:10;;;;;;;57.33;47.65;;;16.00;57.10;;;;;;4920552;28;90500;-71
2021/12/03 05:46:35;;;;;;;57.55;47.65;;;16.10;57.10;;;;;;4938804;28;91666;-70
2021/12/03 05:49:01;;;;;;;60.08;47.78;;;16.10;57.00;;;;;;4936021;28;90817;-72
2021/12/03 05:51:28;;;;;;;59.03;47.75;;;16.10;56.80;;;;;;4927833;28;89849;-71
2021/12/03 05:53:54;;;;;;;58.30;47.95;;;16.20;56.90;;;;;;4926125;28;90863;-70
2021/12/03 05:56:20;;;;;;;58.97;47.60;;;16.30;56.60;;;;;;4930515;28;90809;-70
2021/12/03 05:58:46;;;;;;;60.28;47.92;;;16.40;56.80;;;;;;4933431;28;97334;-71
2021/12/03 06:01:11;;;;;;;61.70;47.72;;;16.50;56.40;;;;;;4929678;28;91071;-71
2021/12/03 06:03:37;;;;;;;58.40;47.72;;;16.70;56.40;;;;;;4925997;28;90274;-70
2021/12/03 06:06:03;;;;;;;59.30;47.85;;;16.80;55.90;;;;;;4936267;28;91977;-70
2021/12/03 06:08:28;;;;;;;59.47;47.70;;;17.00;56.00;;;;;;4930721;28;91227;-71
2021/12/03 06:10:54;;;;;;;63.30;47.85;;;17.00;55.30;;;;;;4925461;28;90524;-72
2021/12/03 06:13:20;;;;;;;57.92;47.35;;;17.10;55.30;;;;;;4930028;28;91383;-71
2021/12/03 06:15:46;;;;;;;60.53;47.58;;;17.00;55.60;;;;;;4923219;28;96225;-71
2021/12/03 06:18:11;;;;;;;58.65;47.60;;;17.10;55.50;;;;;;4920431;28;91049;-71
2021/12/03 06:20:37;;;;;;;62.85;48.13;;;16.90;55.30;;;;;;4927935;28;91120;-72
2021/12/03 06:23:03;;;;;;;60.70;47.72;;;16.90;55.90;;;;;;4935613;28;91544;-72
2021/12/03 06:25:29;;;;;;;62.80;47.90;;;16.80;55.90;;;;;;4936347;28;89854;-72
2021/12/03 06:27:57;;;;;;;60.88;47.63;;;16.80;56.00;;;;;;4936936;28;89527;-71
2021/12/03 06:30:24;;;;;;;61.65;48.00;;;16.80;55.80;;;;;;4933117;28;90815;-71
2021/12/03 06:32:51;;;;;;;62.83;47.75;;;16.80;56.20;;;;;;4928427;28;91847;-72
2021/12/03 06:35:17;;;;;;;60.33;47.50;;;16.80;56.10;;;;;;4924817;28;91783;-71
2021/12/03 06:37:44;;;;;;;60.78;47.78;;;16.60;56.00;;;;;;4926626;28;91450;-72
2021/12/03 06:40:14;;;;;;;58.97;47.72;;;16.60;56.40;;;;;;4924221;28;91441;-73
2021/12/03 06:42:39;;;;;;;60.90;48.08;;;16.60;56.70;;;;;;4928523;28;92496;-73
2021/12/03 06:45:07;;;;;;;63.40;48.05;;;16.60;56.60;;;;;;4936415;28;93741;-73
2021/12/03 06:47:33;;;;;;;67.15;48.20;;;16.60;56.70;;;;;;4934019;28;90067;-74
2021/12/03 06:49:59;;;;;;;62.92;48.25;;;16.60;56.70;;;;;;4945084;28;90108;-74
2021/12/03 06:52:25;;;;;;;63.70;48.50;;;16.60;56.20;;;;;;4952165;28;89586;-73
2021/12/03 06:54:56;;;;;;;62.97;48.17;;;16.60;56.30;;;;;;4945874;28;89746;-73
2021/12/03 06:57:22;;;;;;;62.70;48.28;;;16.50;56.20;;;;;;4936535;28;90544;-73
2021/12/03 06:59:48;;;;;;;60.65;48.25;;;16.50;56.30;;;;;;4950750;28;89895;-72
2021/12/03 07:02:14;;;;;;;61.28;48.50;;;16.50;56.30;;;;;;4938992;28;89807;-71
2021/12/03 07:04:40;;;;;;;65.95;48.45;;;16.50;56.20;;;;;;4939469;28;91999;-72
2021/12/03 07:07:07;;;;;;;64.82;48.67;;;16.70;57.30;;;;;;4938297;28;89810;-76
2021/12/03 07:09:32;;;;;;;65.80;48.65;;;17.20;56.50;;;;;;4911425;28;92039;-76
2021/12/03 07:11:58;;;;;;;68.28;48.95;;;17.90;55.20;;;;;;4940674;28;91145;-76
2021/12/03 07:14:24;;;;;;;63.33;48.75;;;18.60;52.80;;;;;;4950121;28;91335;-79
2021/12/03 07:16:49;;;;;;;67.43;48.88;;;18.90;52.10;;;;;;4938567;28;90768;-79
2021/12/03 07:19:15;;;;;;;68.07;48.90;;;18.80;52.50;;;;;;4932882;28;91224;-79
2021/12/03 07:21:41;;;;;;;64.30;49.10;;;18.80;52.70;;;;;;4941853;28;91781;-79
2021/12/03 07:24:07;;;;;;;63.55;49.00;;;19.10;51.60;;;;;;4927406;28;92867;-76
2021/12/03 07:26:32;;;;;;;63.03;49.22;;;19.00;51.70;;;;;;4952277;28;88613;-76
2021/12/03 07:28:58;;;;;;;64.10;49.35;;;19.20;50.40;;;;;;4941317;28;90280;-76
2021/12/03 07:31:24;;;;;;;68.03;49.15;;;18.90;50.80;;;;;;4930810;28;91637;-76
2021/12/03 07:33:52;;;;;;;67.65;49.00;;;18.70;51.90;;;;;;4941831;28;92666;-76
2021/12/03 07:36:18;;;;;;;70.82;49.15;;;18.60;52.10;;;;;;4947290;28;90156;-77
2021/12/03 07:38:43;;;;;;;67.47;49.05;;;18.50;52.20;;;;;;4932048;28;90256;-77
2021/12/03 07:41:09;;;;;;;66.18;49.38;;;18.40;52.50;;;;;;4941112;28;90132;-76
2021/12/03 07:43:34;;;;;;;67.47;49.50;;;18.40;52.80;;;;;;4944091;28;91846;-76
2021/12/03 07:46:02;;;;;;;64.75;49.38;;;18.40;52.70;;;;;;4945133;28;90552;-76
2021/12/03 07:48:27;;;;;;;68.15;49.13;;;18.40;52.80;;;;;;4937542;28;90960;-77
2021/12/03 07:50:54;;;;;;;64.03;49.53;;;18.40;52.60;;;;;;4939634;28;91877;-77
2021/12/03 07:53:20;;;;;;;64.38;49.50;;;18.30;52.70;;;;;;4936217;28;90266;-78
2021/12/03 07:55:47;;;;;;;70.93;49.95;;;18.30;52.90;;;;;;4939880;28;90875;-76
2021/12/03 07:58:13;;;;;;;74.05;50.55;;;18.30;52.90;;;;;;4922400;28;92909;-77
2021/12/03 08:00:39;;;;;;;74.45;50.08;;;18.30;53.50;;;;;;4948537;28;91887;-77
2021/12/03 08:03:05;;;;;;;67.68;49.72;;;18.40;53.90;;;;;;4939177;28;92291;-77
2021/12/03 08:05:30;;;;;;;65.97;50.25;;;18.40;53.70;;;;;;4944828;28;92639;-77
2021/12/03 08:07:58;;;;;;;69.93;49.95;;;18.40;53.60;;;;;;4933331;28;89904;-77
2021/12/03 08:10:24;;;;;;;70.80;49.92;;;18.40;53.40;;;;;;4941795;28;92540;-77
2021/12/03 08:12:50;;;;;;;70.60;50.08;;;18.50;53.10;;;;;;4935675;28;89993;-77
2021/12/03 08:15:17;;;;;;;66.43;49.55;;;18.40;53.10;;;;;;4927949;28;90494;-77
2021/12/03 08:17:47;;;;;;;66.00;49.55;;;18.40;52.20;;;;;;4933712;28;94316;-78
2021/12/03 08:20:12;;;;;;;63.80;49.38;;;18.40;51.70;;;;;;4935677;28;92101;-78
2021/12/03 08:22:38;;;;;;;64.72;49.45;;;18.50;51.00;;;;;;4936443;28;92219;-78
2021/12/03 08:25:04;;;;;;;62.80;49.78;;;18.50;50.50;;;;;;4936665;28;95332;-77
2021/12/03 08:27:30;;;;;;;65.68;49.92;;;18.60;49.70;;;;;;4943484;28;90016;-77
2021/12/03 08:29:56;;;;;;;65.65;49.83;;;18.70;49.70;;;;;;4937110;28;91352;-77
2021/12/03 08:32:21;;;;;;;66.07;49.78;;;18.80;49.40;;;;;;4937104;28;94292;-78
2021/12/03 08:34:47;;;;;;;63.85;49.97;;;18.90;48.60;;;;;;4936833;28;89930;-78
2021/12/03 08:37:12;;;;;;;66.40;49.95;;;19.00;48.00;;;;;;4939554;28;91375;-78
2021/12/03 08:39:38;;;;;;;65.72;49.60;;;19.10;47.50;;;;;;4943396;28;90418;-77
2021/12/03 08:42:07;;;;;;;63.58;49.53;;;19.20;47.20;;;;;;4937192;28;91150;-78
2021/12/03 08:44:32;;;;;;;71.82;49.75;;;19.30;47.40;;;;;;4952319;28;91065;-77
2021/12/03 08:47:02;;;;;;;64.10;49.78;;;19.40;46.50;;;;;;4935426;28;90922;-77
2021/12/03 08:49:35;;;;;;;63.13;49.47;;;19.50;46.20;;;;;;4930197;28;92933;-78
2021/12/03 08:57:19;;;;;;;62.58;49.22;;;19.70;45.90;;;;;;4932497;28;90257;-78
2021/12/03 08:59:44;;;;;;;64.68;50.03;;;19.70;45.80;;;;;;4934735;28;90063;-77
2021/12/03 09:02:10;;;;;;;64.60;49.60;;;19.60;45.70;;;;;;4942866;28;90598;-77
2021/12/03 09:04:36;;;;;;;65.68;49.95;;;19.70;45.70;;;;;;4930037;28;89934;-77
2021/12/03 09:07:03;;;;;;;63.38;49.88;;;19.70;45.60;;;;;;4926061;28;91045;-78
2021/12/03 09:09:30;;;;;;;62.92;49.85;;;19.70;45.60;;;;;;4939235;28;90811;-78
2021/12/03 09:11:56;;;;;;;66.28;49.85;;;19.70;45.30;;;;;;4937969;28;91576;-78
2021/12/03 09:14:28;;;;;;;67.00;50.13;;;19.60;45.10;;;;;;4940303;28;90679;-79
2021/12/03 09:17:22;;;;;;;67.28;50.08;;;19.60;45.00;;;;;;4935621;28;92038;-78
2021/12/03 09:20:05;;;;;;;66.53;50.03;;;19.50;45.10;;;;;;4931496;28;92880;-79
2021/12/03 09:22:41;;;;;;;71.25;50.25;;;19.60;45.00;;;;;;4932258;28;90793;-79
2021/12/03 09:25:10;;;;;;;66.45;49.88;;;19.40;45.00;;;;;;4941718;28;91320;-79
2021/12/03 09:27:36;;;;;;;65.25;49.90;;;19.40;45.00;;;;;;4941560;28;92706;-79
2021/12/03 09:30:07;;;;;;;66.20;50.05;;;19.40;44.80;;;;;;4939326;28;90971;-78
2021/12/03 09:32:33;;;;;;;67.90;50.17;;;19.40;44.80;;;;;;4946034;28;94775;-78
2021/12/03 09:35:00;;;;;;;65.32;49.83;;;19.30;44.80;;;;;;4930097;28;92388;-78
2021/12/03 09:37:26;;;;;;;64.93;49.75;;;19.30;44.90;;;;;;4939680;28;95694;-79
2021/12/03 09:39:52;;;;;;;64.78;49.55;;;19.20;44.70;;;;;;4937320;28;93145;-79
2021/12/03 09:42:19;;;;;;;65.32;49.50;;;19.20;44.60;;;;;;4935739;28;90023;-79
2021/12/03 09:44:46;;;;;;;64.40;49.45;;;19.10;44.50;;;;;;4937232;28;90559;-78
2021/12/03 09:47:16;;;;;;;64.32;49.53;;;19.10;44.30;;;;;;4933416;28;91790;-77
2021/12/03 09:49:42;;;;;;;65.72;49.53;;;19.10;44.40;;;;;;4935365;28;92954;-77
2021/12/03 09:55:02;;;;;;;64.45;49.85;;;19.10;44.00;;;;;;4932534;28;89337;-78
2021/12/03 09:57:36;;;;;;;65.38;49.35;;;19.20;44.00;;;;;;4936001;28;89962;-77
2021/12/03 10:19:59;;;;;;;71.50;50.08;;;19.80;43.10;;;;;;4933585;28;90159;-77
2021/12/03 10:36:32;;;;;;;65.05;49.63;;;19.80;42.90;;;;;;4927539;28;92133;-76
2021/12/03 10:42:05;;;;;;;67.10;49.78;;;19.80;43.20;;;;;;4934252;28;90677;-76
2021/12/03 10:44:50;;;;;;;64.72;49.55;;;19.70;43.40;;;;;;4927687;28;95949;-76
2021/12/03 10:47:37;;;;;;;67.25;49.45;;;19.70;43.50;;;;;;4928531;28;91833;-76
2021/12/03 10:53:10;;;;;;;64.97;49.92;;;19.60;44.10;;;;;;4940741;28;90315;-76
2021/12/03 11:07:36;;;;;;;63.95;49.60;;;19.40;48.50;;;;;;4944464;28;90703;-76
2021/12/03 11:48:20;;;;;;;61.92;48.78;;;18.80;49.90;;;;;;4949388;28;92185;-77
2021/12/03 14:00:06;;;;;;;64.55;50.00;;;19.00;49.00;;;;;;4947153;28;90214;-77
2021/12/03 14:08:21;;;;;;;62.15;49.53;;;19.00;49.30;;;;;;4942456;28;89721;-76
2021/12/03 14:32:12;;;;;;;59.78;48.85;;;18.80;49.90;;;;;;4949238;28;89912;-77
2021/12/03 14:38:30;;;;;;;60.42;48.90;;;18.80;50.10;;;;;;4946254;28;90927;-76
2021/12/03 14:41:18;;;;;;;58.72;48.53;;;18.80;49.90;;;;;;4939821;28;91623;-77
2021/12/03 14:44:03;;;;;;;59.10;48.58;;;18.80;50.10;;;;;;4944798;28;90035;-77
2021/12/03 14:46:53;;;;;;;61.28;48.72;;;18.70;50.20;;;;;;4946698;28;89520;-77
2021/12/03 14:52:05;;;;;;;60.80;48.55;;;18.70;50.20;;;;;;4941091;28;90421;-78
2021/12/03 15:00:23;;;;;;;59.80;48.40;;;18.60;50.50;;;;;;4939227;28;90428;-77
2021/12/03 15:27:14;;;;;;;63.72;51.05;;;18.60;50.80;;;;;;4937071;28;90765;-73
2021/12/03 15:35:24;;;;;;;67.10;50.17;;;18.70;51.00;;;;;;4926523;28;90060;-73
2021/12/03 16:05:32;;;;;;;61.15;49.42;;;19.30;50.10;;;;;;4928006;28;90973;-73
2021/12/03 16:11:06;;;;;;;62.55;49.38;;;19.40;50.00;;;;;;4935489;28;91342;-73
2021/12/03 16:53:24;;;;;;;60.13;48.75;;;19.20;50.30;;;;;;4933827;28;92309;-72
2021/12/03 16:58:45;;;;;;;61.28;48.85;;;19.10;50.60;;;;;;4942323;28;92433;-72
2021/12/03 17:57:35;;;;;;;63.08;49.15;;;17.80;55.50;;;;;;4931788;28;90862;-71
2021/12/03 18:00:05;;;;;;;63.10;48.78;;;17.80;57.40;;;;;;4937065;28;93234;-71
2021/12/03 18:10:34;;;;;;;60.63;48.35;;;18.00;55.90;;;;;;4925859;28;92384;-71
2021/12/03 18:14:01;;;;;;;63.17;50.28;;;18.00;56.60;;;;;;4937992;28;91328;-71
2021/12/03 18:19:10;;;;;;;65.45;50.85;;;18.10;67.10;;;;;;4942715;28;90316;-71
2021/12/03 18:46:42;;;;;;;61.63;48.95;;;18.10;64.00;;;;;;4954167;28;89805;-73
2021/12/03 18:49:14;;;;;;;64.63;48.63;;;18.00;63.80;;;;;;4937809;28;92049;-74
2021/12/03 18:54:34;;;;;;;59.00;48.35;;;17.90;61.90;;;;;;4940763;28;91134;-71
2021/12/03 18:57:08;;;;;;;62.67;48.90;;;17.80;62.00;;;;;;4948276;28;90845;-72
2021/12/03 18:59:38;;;;;;;60.10;48.63;;;17.80;61.20;;;;;;4937896;28;89596;-73
2021/12/03 19:02:07;;;;;;;62.10;48.60;;;17.80;60.90;;;;;;4936322;28;90035;-74
2021/12/03 19:04:50;;;;;;;62.03;48.88;;;17.80;60.70;;;;;;4930032;28;90192;-75
2021/12/03 19:07:24;;;;;;;59.95;48.50;;;17.80;60.30;;;;;;4949954;28;90247;-74
2021/12/03 19:09:52;;;;;;;60.08;48.63;;;17.80;60.10;;;;;;4934291;28;91918;-73
2021/12/03 19:12:22;;;;;;;63.00;48.75;;;17.70;59.80;;;;;;4939462;28;90303;-73
2021/12/03 19:14:52;;;;;;;62.45;48.80;;;17.70;59.30;;;;;;4951932;28;91419;-73
2021/12/03 19:17:18;;;;;;;62.83;48.85;;;17.60;59.30;;;;;;4946674;28;91107;-73
2021/12/03 19:19:45;;;;;;;59.83;48.72;;;17.60;59.30;;;;;;4941387;28;92502;-73
2021/12/03 19:22:12;;;;;;;60.13;48.92;;;17.60;59.20;;;;;;4931890;28;90358;-73
2021/12/03 19:24:37;;;;;;;61.67;48.60;;;17.60;59.20;;;;;;4943547;28;89092;-73
2021/12/03 19:27:04;;;;;;;60.42;48.97;;;17.50;59.10;;;;;;4942421;28;90623;-73
2021/12/03 19:29:33;;;;;;;59.25;48.38;;;17.60;59.30;;;;;;4942017;28;89760;-73
2021/12/03 19:31:59;;;;;;;61.38;48.67;;;17.50;58.90;;;;;;4935999;28;91680;-73
2021/12/03 19:34:24;;;;;;;62.60;49.92;;;17.40;59.10;;;;;;4937039;28;94093;-73
2021/12/03 19:36:52;;;;;;;61.45;50.63;;;17.50;59.20;;;;;;4940667;28;91038;-74
2021/12/03 19:39:19;;;;;;;63.08;49.92;;;17.40;58.90;;;;;;4936585;28;93099;-73
2021/12/03 19:41:52;;;;;;;63.70;50.03;;;17.40;59.10;;;;;;4939572;28;89574;-74
2021/12/03 19:44:21;;;;;;;63.20;50.67;;;17.30;58.90;;;;;;4935636;28;90887;-74
2021/12/03 19:46:49;;;;;;;60.05;48.97;;;17.40;58.90;;;;;;4945410;28;90763;-74
2021/12/03 19:51:55;;;;;;;61.80;49.22;;;17.30;58.90;;;;;;4946131;28;90610;-73
2021/12/03 19:54:22;;;;;;;63.33;49.35;;;17.30;58.70;;;;;;4939554;28;94394;-73
2021/12/03 19:56:49;;;;;;;60.20;48.53;;;17.30;58.70;;;;;;4933041;28;93830;-73
2021/12/03 19:59:17;;;;;;;59.58;49.28;;;17.30;58.90;;;;;;4941844;28;89896;-73
2021/12/03 20:01:44;;;;;;;60.20;49.45;;;17.40;58.80;;;;;;4938313;28;92579;-73
2021/12/03 20:04:10;;;;;;;61.38;48.95;;;17.40;58.50;;;;;;4934719;28;93525;-74
2021/12/03 20:06:41;;;;;;;59.55;48.72;;;17.40;58.40;;;;;;4942374;28;92145;-73
2021/12/03 20:09:08;;;;;;;59.75;48.88;;;17.50;58.20;;;;;;4935708;28;93633;-73
2021/12/03 20:11:39;;;;;;;59.70;48.85;;;17.50;58.40;;;;;;4945867;28;93935;-73
2021/12/03 20:14:06;;;;;;;60.03;49.25;;;17.50;58.20;;;;;;4934427;28;91643;-73
2021/12/03 20:16:43;;;;;;;59.53;49.13;;;17.50;58.10;;;;;;4937887;28;92117;-74
2021/12/03 20:21:38;;;;;;;58.80;48.63;;;17.50;58.00;;;;;;4940668;28;90916;-73
2021/12/03 20:27:00;;;;;;;58.80;48.47;;;17.50;58.00;;;;;;4941569;28;92109;-74